sensor_id;sensor_type;location;lat;lon;timestamp;pressure;altitude;pressure_sealevel;temperature;humidity
63665;BME280;49820;33.966;73.390;2022-08-03T00:00:42;78492.72;;;15.99;100.00
63665;BME280;49820;33.966;73.390;2022-08-03T00:03:12;78494.94;;;16.09;100.00
63665;BME280;49820;33.966;73.390;2022-08-03T00:05:42;78513.91;;;16.22;100.00
63665;BME280;49820;33.966;73.390;2022-08-03T00:08:31;78515.13;;;16.25;100.00
63665;BME280;49820;33.966;73.390;2022-08-03T00:11:07;78510.47;;;16.23;100.00
63665;BME280;49820;33.966;73.390;2022-08-03T00:13:36;78514.38;;;16.26;100.00
63665;BME280;49820;33.966;73.390;2022-08-03T00:16:06;78506.66;;;16.18;100.00
63665;BME280;49820;33.966;73.390;2022-08-03T00:18:36;78513.16;;;16.09;100.00
63665;BME280;49820;33.966;73.390;2022-08-03T00:21:06;78520.88;;;16.02;100.00
63665;BME280;49820;33.966;73.390;2022-08-03T00:23:36;78528.38;;;15.99;100.00
63665;BME280;49820;33.966;73.390;2022-08-03T00:26:20;78530.13;;;15.90;100.00
63665;BME280;49820;33.966;73.390;2022-08-03T00:28:50;78517.69;;;15.83;100.00
63665;BME280;49820;33.966;73.390;2022-08-03T00:31:19;78512.09;;;15.72;100.00
63665;BME280;49820;33.966;73.390;2022-08-03T00:34:07;78528.00;;;15.93;100.00
63665;BME280;49820;33.966;73.390;2022-08-03T00:36:39;78533.13;;;15.99;100.00
63665;BME280;49820;33.966;73.390;2022-08-03T00:39:08;78524.38;;;15.98;100.00
63665;BME280;49820;33.966;73.390;2022-08-03T00:41:39;78535.72;;;16.01;100.00
63665;BME280;49820;33.966;73.390;2022-08-03T00:44:08;78530.25;;;16.03;100.00
63665;BME280;49820;33.966;73.390;2022-08-03T00:46:37;78543.38;;;16.11;100.00
63665;BME280;49820;33.966;73.390;2022-08-03T00:49:07;78541.13;;;16.30;100.00
63665;BME280;49820;33.966;73.390;2022-08-03T00:51:37;78543.47;;;16.38;100.00
63665;BME280;49820;33.966;73.390;2022-08-03T00:54:06;78552.78;;;16.56;100.00
63665;BME280;49820;33.966;73.390;2022-08-03T00:56:36;78552.03;;;16.58;100.00
63665;BME280;49820;33.966;73.390;2022-08-03T00:59:28;78554.28;;;16.68;100.00
63665;BME280;49820;33.966;73.390;2022-08-03T01:01:58;78544.34;;;16.64;100.00
63665;BME280;49820;33.966;73.390;2022-08-03T01:04:27;78555.66;;;16.82;100.00
63665;BME280;49820;33.966;73.390;2022-08-03T01:16:05;78551.94;;;17.73;99.65
63665;BME280;49820;33.966;73.390;2022-08-03T01:18:51;78554.91;;;17.82;96.39
63665;BME280;49820;33.966;73.390;2022-08-03T01:21:33;78567.78;;;17.94;98.02
63665;BME280;49820;33.966;73.390;2022-08-03T01:30:09;78555.94;;;18.67;92.76
63665;BME280;49820;33.966;73.390;2022-08-03T01:33:23;78552.91;;;18.98;89.64
63665;BME280;49820;33.966;73.390;2022-08-03T01:35:59;78549.69;;;19.21;88.42
63665;BME280;49820;33.966;73.390;2022-08-03T01:38:35;78555.72;;;19.34;83.91
63665;BME280;49820;33.966;73.390;2022-08-03T01:41:12;78558.19;;;19.38;81.26
63665;BME280;49820;33.966;73.390;2022-08-03T01:43:44;78568.78;;;19.68;80.87
63665;BME280;49820;33.966;73.390;2022-08-03T01:46:40;78563.91;;;19.70;80.11
63665;BME280;49820;33.966;73.390;2022-08-03T01:49:15;78570.56;;;19.48;84.28
63665;BME280;49820;33.966;73.390;2022-08-03T01:51:47;78569.34;;;19.58;83.07
63665;BME280;49820;33.966;73.390;2022-08-03T01:54:36;78558.22;;;19.51;87.51
63665;BME280;49820;33.966;73.390;2022-08-03T01:57:06;78569.66;;;19.64;100.00
63665;BME280;49820;33.966;73.390;2022-08-03T01:59:38;78563.59;;;20.00;100.00
63665;BME280;49820;33.966;73.390;2022-08-03T02:02:11;78579.72;;;20.50;100.00
63665;BME280;49820;33.966;73.390;2022-08-03T02:05:03;78578.13;;;21.00;100.00
63665;BME280;49820;33.966;73.390;2022-08-03T02:07:40;78582.34;;;21.54;100.00
63665;BME280;49820;33.966;73.390;2022-08-03T02:10:13;78585.69;;;21.55;98.25
63665;BME280;49820;33.966;73.390;2022-08-03T02:13:06;78587.34;;;22.05;100.00
63665;BME280;49820;33.966;73.390;2022-08-03T02:15:38;78586.16;;;22.55;100.00
63665;BME280;49820;33.966;73.390;2022-08-03T02:18:10;78590.03;;;22.90;95.32
63665;BME280;49820;33.966;73.390;2022-08-03T02:20:42;78593.28;;;22.93;96.16
63665;BME280;49820;33.966;73.390;2022-08-03T02:23:16;78578.97;;;23.03;100.00
63665;BME280;49820;33.966;73.390;2022-08-03T02:25:53;78596.53;;;23.36;99.12
63665;BME280;49820;33.966;73.390;2022-08-03T02:28:34;78596.63;;;23.55;84.37
63665;BME280;49820;33.966;73.390;2022-08-03T02:31:06;78600.34;;;23.71;86.25
63665;BME280;49820;33.966;73.390;2022-08-03T02:33:48;78612.75;;;24.38;87.77
63665;BME280;49820;33.966;73.390;2022-08-03T02:36:27;78614.97;;;24.55;76.72
63665;BME280;49820;33.966;73.390;2022-08-03T02:38:59;78613.25;;;24.60;67.83
63665;BME280;49820;33.966;73.390;2022-08-03T02:41:36;78617.72;;;24.93;58.95
63665;BME280;49820;33.966;73.390;2022-08-03T02:44:10;78622.16;;;25.07;56.18
63665;BME280;49820;33.966;73.390;2022-08-03T02:46:44;78621.75;;;25.22;56.17
63665;BME280;49820;33.966;73.390;2022-08-03T02:49:16;78615.25;;;25.08;58.25
63665;BME280;49820;33.966;73.390;2022-08-03T02:52:11;78620.28;;;24.57;55.41
63665;BME280;49820;33.966;73.390;2022-08-03T02:54:45;78624.31;;;24.77;56.22
63665;BME280;49820;33.966;73.390;2022-08-03T02:57:19;78643.78;;;25.20;55.49
63665;BME280;49820;33.966;73.390;2022-08-03T02:59:51;78635.72;;;25.18;55.23
63665;BME280;49820;33.966;73.390;2022-08-03T03:02:23;78628.78;;;25.66;55.12
63665;BME280;49820;33.966;73.390;2022-08-03T03:04:55;78611.47;;;25.51;54.54
63665;BME280;49820;33.966;73.390;2022-08-03T03:07:46;78631.91;;;25.52;56.79
63665;BME280;49820;33.966;73.390;2022-08-03T03:10:23;78629.66;;;26.18;53.21
63665;BME280;49820;33.966;73.390;2022-08-03T03:12:56;78634.75;;;26.42;49.88
63665;BME280;49820;33.966;73.390;2022-08-03T03:15:27;78642.88;;;26.78;52.20
63665;BME280;49820;33.966;73.390;2022-08-03T03:18:02;78642.91;;;26.87;48.60
63665;BME280;49820;33.966;73.390;2022-08-03T03:20:33;78631.66;;;26.91;52.57
63665;BME280;49820;33.966;73.390;2022-08-03T03:23:05;78633.59;;;27.27;50.59
63665;BME280;49820;33.966;73.390;2022-08-03T03:25:36;78645.38;;;27.43;54.77
63665;BME280;49820;33.966;73.390;2022-08-03T03:28:09;78636.03;;;27.48;62.72
63665;BME280;49820;33.966;73.390;2022-08-03T03:30:39;78651.84;;;27.48;57.64
63665;BME280;49820;33.966;73.390;2022-08-03T03:33:09;78632.44;;;27.93;62.74
63665;BME280;49820;33.966;73.390;2022-08-03T03:35:40;78627.50;;;28.36;64.74
63665;BME280;49820;33.966;73.390;2022-08-03T03:38:13;78637.25;;;28.59;57.81
63665;BME280;49820;33.966;73.390;2022-08-03T03:40:45;78643.75;;;28.47;69.29
63665;BME280;49820;33.966;73.390;2022-08-03T03:43:16;78627.38;;;28.62;71.93
63665;BME280;49820;33.966;73.390;2022-08-03T03:45:47;78639.75;;;29.11;64.64
63665;BME280;49820;33.966;73.390;2022-08-03T03:48:18;78628.66;;;29.04;59.72
63665;BME280;49820;33.966;73.390;2022-08-03T03:50:49;78619.66;;;29.21;55.15
63665;BME280;49820;33.966;73.390;2022-08-03T03:53:19;78623.97;;;29.03;60.57
63665;BME280;49820;33.966;73.390;2022-08-03T03:55:51;78630.81;;;28.54;49.13
63665;BME280;49820;33.966;73.390;2022-08-03T03:58:31;78648.38;;;28.16;51.61
63665;BME280;49820;33.966;73.390;2022-08-03T04:01:01;78607.41;;;27.88;49.39
63665;BME280;49820;33.966;73.390;2022-08-03T04:03:34;78663.06;;;26.75;52.57
63665;BME280;49820;33.966;73.390;2022-08-03T04:06:04;78663.44;;;26.51;57.35
63665;BME280;49820;33.966;73.390;2022-08-03T04:09:03;78666.03;;;27.16;56.55
63665;BME280;49820;33.966;73.390;2022-08-03T04:11:53;78654.97;;;26.73;57.19
63665;BME280;49820;33.966;73.390;2022-08-03T04:14:35;78662.34;;;27.71;58.77
63665;BME280;49820;33.966;73.390;2022-08-03T04:17:08;78650.13;;;28.37;54.00
63665;BME280;49820;33.966;73.390;2022-08-03T04:19:45;78671.00;;;28.75;52.75
63665;BME280;49820;33.966;73.390;2022-08-03T04:22:23;78676.88;;;27.78;50.22
63665;BME280;49820;33.966;73.390;2022-08-03T04:25:02;78677.47;;;28.22;48.58
63665;BME280;49820;33.966;73.390;2022-08-03T04:27:36;78664.13;;;27.40;51.98
63665;BME280;49820;33.966;73.390;2022-08-03T04:30:08;78674.44;;;27.48;50.62
63665;BME280;49820;33.966;73.390;2022-08-03T04:32:39;78677.34;;;27.46;54.86
63665;BME280;49820;33.966;73.390;2022-08-03T04:35:12;78678.66;;;26.68;56.11
63665;BME280;49820;33.966;73.390;2022-08-03T04:37:45;78680.41;;;26.63;58.05
63665;BME280;49820;33.966;73.390;2022-08-03T04:40:24;78668.38;;;28.32;68.45
63665;BME280;49820;33.966;73.390;2022-08-03T04:42:57;78679.38;;;28.15;57.45
63665;BME280;49820;33.966;73.390;2022-08-03T04:45:29;78673.00;;;27.75;55.16
63665;BME280;49820;33.966;73.390;2022-08-03T04:48:00;78687.06;;;27.54;59.84
63665;BME280;49820;33.966;73.390;2022-08-03T04:50:32;78684.38;;;26.38;58.83
63665;BME280;49820;33.966;73.390;2022-08-03T04:53:05;78689.59;;;26.22;59.50
63665;BME280;49820;33.966;73.390;2022-08-03T04:55:36;78673.06;;;25.97;58.34
63665;BME280;49820;33.966;73.390;2022-08-03T04:58:10;78672.50;;;25.58;61.94
63665;BME280;49820;33.966;73.390;2022-08-03T05:00:41;78696.50;;;26.49;58.20
63665;BME280;49820;33.966;73.390;2022-08-03T05:03:12;78687.75;;;26.38;59.45
63665;BME280;49820;33.966;73.390;2022-08-03T05:05:52;78686.53;;;26.54;59.43
63665;BME280;49820;33.966;73.390;2022-08-03T05:08:38;78689.09;;;26.20;59.01
63665;BME280;49820;33.966;73.390;2022-08-03T05:11:16;78685.53;;;26.49;56.62
63665;BME280;49820;33.966;73.390;2022-08-03T05:13:47;78695.59;;;26.25;58.19
63665;BME280;49820;33.966;73.390;2022-08-03T05:16:19;78698.22;;;25.52;62.87
63665;BME280;49820;33.966;73.390;2022-08-03T05:18:48;78693.44;;;25.14;63.15
63665;BME280;49820;33.966;73.390;2022-08-03T05:21:19;78693.31;;;24.67;65.27
63665;BME280;49820;33.966;73.390;2022-08-03T05:23:48;78686.63;;;25.04;67.13
63665;BME280;49820;33.966;73.390;2022-08-03T05:26:19;78723.19;;;26.32;63.80
63665;BME280;49820;33.966;73.390;2022-08-03T05:28:49;78728.25;;;27.00;67.86
63665;BME280;49820;33.966;73.390;2022-08-03T05:31:21;78724.91;;;27.00;63.73
63665;BME280;49820;33.966;73.390;2022-08-03T05:33:52;78707.53;;;27.46;65.74
63665;BME280;49820;33.966;73.390;2022-08-03T05:36:22;78717.41;;;27.78;62.38
63665;BME280;49820;33.966;73.390;2022-08-03T05:38:53;78714.94;;;27.30;63.22
63665;BME280;49820;33.966;73.390;2022-08-03T05:41:29;78714.63;;;27.34;62.91
63665;BME280;49820;33.966;73.390;2022-08-03T05:44:04;78714.91;;;27.05;63.28
63665;BME280;49820;33.966;73.390;2022-08-03T05:46:33;78688.03;;;26.26;63.34
63665;BME280;49820;33.966;73.390;2022-08-03T05:49:04;78706.00;;;26.42;63.23
63665;BME280;49820;33.966;73.390;2022-08-03T05:51:36;78695.25;;;26.66;62.46
63665;BME280;49820;33.966;73.390;2022-08-03T05:54:06;78692.38;;;25.67;64.56
63665;BME280;49820;33.966;73.390;2022-08-03T05:56:36;78713.03;;;26.02;66.76
63665;BME280;49820;33.966;73.390;2022-08-03T05:59:06;78711.63;;;26.12;64.49
63665;BME280;49820;33.966;73.390;2022-08-03T06:01:56;78706.03;;;27.04;64.03
63665;BME280;49820;33.966;73.390;2022-08-03T06:04:28;78687.84;;;27.69;62.44
63665;BME280;49820;33.966;73.390;2022-08-03T06:06:57;78700.19;;;28.96;56.20
63665;BME280;49820;33.966;73.390;2022-08-03T06:09:28;78690.25;;;27.65;58.93
63665;BME280;49820;33.966;73.390;2022-08-03T06:12:19;78679.25;;;27.99;57.26
63665;BME280;49820;33.966;73.390;2022-08-03T06:14:50;78703.81;;;28.19;58.10
63665;BME280;49820;33.966;73.390;2022-08-03T06:17:19;78713.00;;;28.32;54.88
63665;BME280;49820;33.966;73.390;2022-08-03T06:19:51;78710.34;;;28.56;57.27
63665;BME280;49820;33.966;73.390;2022-08-03T06:22:23;78680.56;;;28.00;57.85
63665;BME280;49820;33.966;73.390;2022-08-03T06:24:54;78703.56;;;28.55;54.89
63665;BME280;49820;33.966;73.390;2022-08-03T06:27:33;78711.56;;;26.31;61.61
63665;BME280;49820;33.966;73.390;2022-08-03T06:30:05;78707.25;;;26.06;65.99
63665;BME280;49820;33.966;73.390;2022-08-03T06:32:38;78705.59;;;25.26;66.23
63665;BME280;49820;33.966;73.390;2022-08-03T06:35:19;78702.78;;;25.17;66.42
63665;BME280;49820;33.966;73.390;2022-08-03T06:37:52;78680.13;;;24.99;66.10
63665;BME280;49820;33.966;73.390;2022-08-03T06:40:23;78691.84;;;24.79;71.14
63665;BME280;49820;33.966;73.390;2022-08-03T06:43:02;78703.34;;;24.90;74.95
63665;BME280;49820;33.966;73.390;2022-08-03T06:45:39;78708.94;;;25.65;75.27
63665;BME280;49820;33.966;73.390;2022-08-03T06:48:10;78700.28;;;26.72;70.27
63665;BME280;49820;33.966;73.390;2022-08-03T06:50:42;78688.19;;;26.77;69.41
63665;BME280;49820;33.966;73.390;2022-08-03T06:53:12;78711.88;;;27.34;69.47
63665;BME280;49820;33.966;73.390;2022-08-03T06:55:49;78709.28;;;27.24;66.63
63665;BME280;49820;33.966;73.390;2022-08-03T06:58:23;78703.28;;;27.04;76.72
63665;BME280;49820;33.966;73.390;2022-08-03T07:00:54;78699.13;;;27.40;68.21
63665;BME280;49820;33.966;73.390;2022-08-03T07:03:23;78697.31;;;28.14;68.14
63665;BME280;49820;33.966;73.390;2022-08-03T07:05:53;78707.22;;;27.76;64.24
63665;BME280;49820;33.966;73.390;2022-08-03T07:08:24;78707.63;;;27.10;67.75
63665;BME280;49820;33.966;73.390;2022-08-03T07:11:01;78710.63;;;27.77;70.96
63665;BME280;49820;33.966;73.390;2022-08-03T07:13:31;78716.03;;;27.16;66.29
63665;BME280;49820;33.966;73.390;2022-08-03T07:16:01;78707.38;;;27.74;64.27
63665;BME280;49820;33.966;73.390;2022-08-03T07:18:30;78690.81;;;26.88;70.68
63665;BME280;49820;33.966;73.390;2022-08-03T07:21:01;78689.91;;;26.18;72.28
63665;BME280;49820;33.966;73.390;2022-08-03T07:23:32;78712.97;;;25.94;74.30
63665;BME280;49820;33.966;73.390;2022-08-03T07:26:02;78683.78;;;26.18;77.21
63665;BME280;49820;33.966;73.390;2022-08-03T07:28:32;78689.75;;;25.84;75.64
63665;BME280;49820;33.966;73.390;2022-08-03T07:31:02;78714.56;;;25.63;89.66
63665;BME280;49820;33.966;73.390;2022-08-03T07:33:36;78659.47;;;25.58;79.59
63665;BME280;49820;33.966;73.390;2022-08-03T07:36:32;78708.19;;;26.31;72.03
63665;BME280;49820;33.966;73.390;2022-08-03T07:39:01;78692.06;;;27.77;68.64
63665;BME280;49820;33.966;73.390;2022-08-03T07:41:45;78687.69;;;27.46;69.13
63665;BME280;49820;33.966;73.390;2022-08-03T07:44:17;78680.72;;;28.16;65.60
63665;BME280;49820;33.966;73.390;2022-08-03T07:46:51;78698.88;;;26.90;66.13
63665;BME280;49820;33.966;73.390;2022-08-03T07:49:23;78686.91;;;26.85;70.62
63665;BME280;49820;33.966;73.390;2022-08-03T07:51:52;78670.97;;;26.87;67.47
63665;BME280;49820;33.966;73.390;2022-08-03T07:54:40;78678.28;;;27.00;68.62
63665;BME280;49820;33.966;73.390;2022-08-03T07:57:10;78689.72;;;27.11;64.99
63665;BME280;49820;33.966;73.390;2022-08-03T07:59:45;78684.09;;;28.16;63.25
63665;BME280;49820;33.966;73.390;2022-08-03T08:02:38;78691.53;;;28.00;63.62
63665;BME280;49820;33.966;73.390;2022-08-03T08:05:10;78660.56;;;27.67;62.27
63665;BME280;49820;33.966;73.390;2022-08-03T08:07:41;78680.91;;;27.79;66.55
63665;BME280;49820;33.966;73.390;2022-08-03T08:10:18;78690.28;;;27.56;71.17
63665;BME280;49820;33.966;73.390;2022-08-03T08:12:49;78651.25;;;26.68;81.27
63665;BME280;49820;33.966;73.390;2022-08-03T08:15:19;78678.59;;;26.95;71.07
63665;BME280;49820;33.966;73.390;2022-08-03T08:17:52;78676.38;;;27.24;72.28
63665;BME280;49820;33.966;73.390;2022-08-03T08:20:27;78664.25;;;28.65;72.73
63665;BME280;49820;33.966;73.390;2022-08-03T08:23:00;78662.63;;;28.19;69.77
63665;BME280;49820;33.966;73.390;2022-08-03T08:25:52;78656.69;;;27.21;68.54
63665;BME280;49820;33.966;73.390;2022-08-03T08:28:22;78665.00;;;26.85;72.57
63665;BME280;49820;33.966;73.390;2022-08-03T08:31:01;78651.25;;;26.59;70.73
63665;BME280;49820;33.966;73.390;2022-08-03T08:33:31;78638.59;;;27.50;65.74
63665;BME280;49820;33.966;73.390;2022-08-03T08:36:23;78639.25;;;27.68;64.00
63665;BME280;49820;33.966;73.390;2022-08-03T08:38:53;78648.22;;;26.80;64.22
63665;BME280;49820;33.966;73.390;2022-08-03T08:41:23;78614.38;;;27.01;71.45
63665;BME280;49820;33.966;73.390;2022-08-03T08:44:01;78647.53;;;26.63;70.38
63665;BME280;49820;33.966;73.390;2022-08-03T08:46:32;78662.09;;;25.97;75.88
63665;BME280;49820;33.966;73.390;2022-08-03T08:49:03;78649.31;;;25.57;74.53
63665;BME280;49820;33.966;73.390;2022-08-03T08:51:35;78639.50;;;25.04;80.83
63665;BME280;49820;33.966;73.390;2022-08-03T08:54:27;78653.66;;;24.87;91.89
63665;BME280;49820;33.966;73.390;2022-08-03T08:57:03;78643.16;;;25.20;86.41
63665;BME280;49820;33.966;73.390;2022-08-03T08:59:55;78640.78;;;26.79;71.36
63665;BME280;49820;33.966;73.390;2022-08-03T09:02:28;78638.97;;;26.49;86.45
63665;BME280;49820;33.966;73.390;2022-08-03T09:05:00;78655.13;;;26.71;71.75
63665;BME280;49820;33.966;73.390;2022-08-03T09:07:34;78658.91;;;25.66;79.82
63665;BME280;49820;33.966;73.390;2022-08-03T09:10:10;78635.25;;;25.43;78.89
63665;BME280;49820;33.966;73.390;2022-08-03T09:12:45;78637.84;;;24.79;93.78
63665;BME280;49820;33.966;73.390;2022-08-03T09:15:21;78639.41;;;24.76;84.52
63665;BME280;49820;33.966;73.390;2022-08-03T09:17:55;78653.44;;;25.19;87.03
63665;BME280;49820;33.966;73.390;2022-08-03T09:20:27;78650.50;;;25.40;84.78
63665;BME280;49820;33.966;73.390;2022-08-03T09:23:01;78608.97;;;25.94;78.53
63665;BME280;49820;33.966;73.390;2022-08-03T09:25:57;78608.19;;;26.04;89.40
63665;BME280;49820;33.966;73.390;2022-08-03T09:28:34;78627.81;;;25.61;87.21
63665;BME280;49820;33.966;73.390;2022-08-03T09:34:07;78596.25;;;26.52;88.30
63665;BME280;49820;33.966;73.390;2022-08-03T09:36:45;78627.47;;;25.93;81.70
63665;BME280;49820;33.966;73.390;2022-08-03T09:41:46;78629.16;;;26.61;83.22
63665;BME280;49820;33.966;73.390;2022-08-03T09:44:17;78619.31;;;26.02;75.25
63665;BME280;49820;33.966;73.390;2022-08-03T09:46:54;78615.63;;;26.14;67.90
63665;BME280;49820;33.966;73.390;2022-08-03T09:49:25;78598.44;;;27.21;66.98
63665;BME280;49820;33.966;73.390;2022-08-03T09:51:56;78616.97;;;27.03;70.93
63665;BME280;49820;33.966;73.390;2022-08-03T09:54:52;78630.69;;;25.59;75.07
63665;BME280;49820;33.966;73.390;2022-08-03T09:57:23;78627.34;;;25.67;73.31
63665;BME280;49820;33.966;73.390;2022-08-03T10:00:07;78628.19;;;25.19;69.64
63665;BME280;49820;33.966;73.390;2022-08-03T10:02:43;78627.25;;;25.50;67.58
63665;BME280;49820;33.966;73.390;2022-08-03T10:05:14;78620.22;;;26.97;71.24
63665;BME280;49820;33.966;73.390;2022-08-03T10:07:48;78625.16;;;26.23;59.13
63665;BME280;49820;33.966;73.390;2022-08-03T10:10:19;78591.38;;;25.54;63.30
63665;BME280;49820;33.966;73.390;2022-08-03T10:12:59;78612.47;;;27.17;57.42
63665;BME280;49820;33.966;73.390;2022-08-03T10:15:30;78612.31;;;27.10;58.15
63665;BME280;49820;33.966;73.390;2022-08-03T10:18:20;78606.78;;;27.79;65.21
63665;BME280;49820;33.966;73.390;2022-08-03T10:20:56;78626.97;;;27.67;56.57
63665;BME280;49820;33.966;73.390;2022-08-03T10:23:34;78624.16;;;28.10;53.90
63665;BME280;49820;33.966;73.390;2022-08-03T10:26:06;78551.00;;;27.22;54.50
63665;BME280;49820;33.966;73.390;2022-08-03T10:28:44;78606.31;;;27.51;53.19
63665;BME280;49820;33.966;73.390;2022-08-03T10:31:17;78577.44;;;26.66;55.46
63665;BME280;49820;33.966;73.390;2022-08-03T10:33:51;78623.28;;;27.62;55.10
63665;BME280;49820;33.966;73.390;2022-08-03T10:36:26;78582.91;;;27.43;56.31
63665;BME280;49820;33.966;73.390;2022-08-03T10:39:00;78595.34;;;27.68;54.42
63665;BME280;49820;33.966;73.390;2022-08-03T10:41:44;78610.66;;;27.73;53.51
63665;BME280;49820;33.966;73.390;2022-08-03T10:44:19;78601.50;;;27.17;57.02
63665;BME280;49820;33.966;73.390;2022-08-03T10:46:52;78622.47;;;27.29;58.76
63665;BME280;49820;33.966;73.390;2022-08-03T10:49:23;78616.97;;;27.81;57.43
63665;BME280;49820;33.966;73.390;2022-08-03T10:52:03;78609.72;;;27.43;58.36
63665;BME280;49820;33.966;73.390;2022-08-03T10:54:53;78611.50;;;27.03;56.02
63665;BME280;49820;33.966;73.390;2022-08-03T10:57:52;78586.31;;;27.09;63.11
63665;BME280;49820;33.966;73.390;2022-08-03T11:00:26;78616.34;;;27.03;52.54
63665;BME280;49820;33.966;73.390;2022-08-03T11:03:07;78616.00;;;27.41;56.68
63665;BME280;49820;33.966;73.390;2022-08-03T11:05:49;78606.81;;;27.02;53.92
63665;BME280;49820;33.966;73.390;2022-08-03T11:08:26;78586.16;;;27.63;55.85
63665;BME280;49820;33.966;73.390;2022-08-03T11:14:03;78592.28;;;27.63;53.29
63665;BME280;49820;33.966;73.390;2022-08-03T11:19:16;78595.19;;;27.53;59.11
63665;BME280;49820;33.966;73.390;2022-08-03T11:27:16;78597.91;;;27.79;52.16
63665;BME280;49820;33.966;73.390;2022-08-03T11:35:21;78592.13;;;26.88;52.54
63665;BME280;49820;33.966;73.390;2022-08-03T11:40:47;78591.94;;;27.67;50.44
63665;BME280;49820;33.966;73.390;2022-08-03T11:46:05;78600.19;;;27.24;51.52
63665;BME280;49820;33.966;73.390;2022-08-03T11:48:41;78601.19;;;27.55;51.32
63665;BME280;49820;33.966;73.390;2022-08-03T11:51:22;78611.78;;;27.77;54.17
63665;BME280;49820;33.966;73.390;2022-08-03T11:54:01;78609.41;;;27.38;59.10
63665;BME280;49820;33.966;73.390;2022-08-03T11:56:47;78601.97;;;27.54;53.73
63665;BME280;49820;33.966;73.390;2022-08-03T11:59:16;78605.84;;;27.31;58.19
63665;BME280;49820;33.966;73.390;2022-08-03T12:01:49;78613.44;;;27.56;48.43
63665;BME280;49820;33.966;73.390;2022-08-03T12:04:19;78588.09;;;27.21;48.42
63665;BME280;49820;33.966;73.390;2022-08-03T12:15:16;78558.72;;;26.68;56.71
63665;BME280;49820;33.966;73.390;2022-08-03T12:18:17;78576.78;;;26.56;49.05
63665;BME280;49820;33.966;73.390;2022-08-03T12:25:26;78573.38;;;25.57;51.65
63665;BME280;49820;33.966;73.390;2022-08-03T12:28:19;78569.97;;;25.20;56.55
63665;BME280;49820;33.966;73.390;2022-08-03T12:31:43;78578.66;;;24.76;54.76
63665;BME280;49820;33.966;73.390;2022-08-03T12:35:22;78554.25;;;24.35;56.65
63665;BME280;49820;33.966;73.390;2022-08-03T12:38:03;78563.84;;;24.15;58.02
63665;BME280;49820;33.966;73.390;2022-08-03T12:40:41;78559.59;;;23.88;59.48
63665;BME280;49820;33.966;73.390;2022-08-03T12:43:29;78556.16;;;23.49;59.43
63665;BME280;49820;33.966;73.390;2022-08-03T12:46:13;78558.28;;;23.27;64.08
63665;BME280;49820;33.966;73.390;2022-08-03T12:49:15;78544.34;;;23.01;64.44
63665;BME280;49820;33.966;73.390;2022-08-03T12:52:00;78544.28;;;22.82;64.94
63665;BME280;49820;33.966;73.390;2022-08-03T12:54:37;78523.41;;;22.57;66.77
63665;BME280;49820;33.966;73.390;2022-08-03T12:57:21;78508.69;;;22.22;64.90
63665;BME280;49820;33.966;73.390;2022-08-03T13:00:12;78535.75;;;21.82;72.15
63665;BME280;49820;33.966;73.390;2022-08-03T13:03:07;78541.69;;;21.74;67.90
63665;BME280;49820;33.966;73.390;2022-08-03T13:06:11;78541.69;;;21.74;63.09
63665;BME280;49820;33.966;73.390;2022-08-03T13:09:10;78534.19;;;21.74;63.23
63665;BME280;49820;33.966;73.390;2022-08-03T13:12:13;78515.66;;;21.45;68.29
63665;BME280;49820;33.966;73.390;2022-08-03T13:14:56;78547.00;;;21.54;65.57
63665;BME280;49820;33.966;73.390;2022-08-03T13:17:32;78541.16;;;21.39;66.95
63665;BME280;49820;33.966;73.390;2022-08-03T13:20:08;78545.84;;;21.17;69.10
63665;BME280;49820;33.966;73.390;2022-08-03T13:22:47;78544.53;;;21.06;68.84
63665;BME280;49820;33.966;73.390;2022-08-03T13:25:31;78546.16;;;21.01;68.57
63665;BME280;49820;33.966;73.390;2022-08-03T13:28:26;78518.88;;;20.58;73.49
63665;BME280;49820;33.966;73.390;2022-08-03T13:31:08;78551.97;;;20.61;74.00
63665;BME280;49820;33.966;73.390;2022-08-03T13:33:44;78483.09;;;20.09;76.04
63665;BME280;49820;33.966;73.390;2022-08-03T13:36:31;78536.13;;;20.29;78.18
63665;BME280;49820;33.966;73.390;2022-08-03T13:39:26;78507.88;;;19.90;78.40
63665;BME280;49820;33.966;73.390;2022-08-03T13:42:14;78539.78;;;20.13;81.37
63665;BME280;49820;33.966;73.390;2022-08-03T13:44:53;78533.78;;;20.00;80.24
63665;BME280;49820;33.966;73.390;2022-08-03T13:47:39;78540.63;;;19.99;81.97
63665;BME280;49820;33.966;73.390;2022-08-03T13:51:01;78539.50;;;19.70;86.33
63665;BME280;49820;33.966;73.390;2022-08-03T13:58:07;78530.34;;;19.53;84.42
63665;BME280;49820;33.966;73.390;2022-08-03T14:00:49;78542.06;;;19.49;87.33
63665;BME280;49820;33.966;73.390;2022-08-03T14:03:26;78511.31;;;19.17;88.14
63665;BME280;49820;33.966;73.390;2022-08-03T14:06:04;78520.00;;;19.19;86.62
63665;BME280;49820;33.966;73.390;2022-08-03T14:08:41;78527.34;;;19.21;86.18
63665;BME280;49820;33.966;73.390;2022-08-03T14:11:11;78528.88;;;19.18;84.24
63665;BME280;49820;33.966;73.390;2022-08-03T14:13:40;78497.59;;;18.95;79.46
63665;BME280;49820;33.966;73.390;2022-08-03T14:16:10;78513.03;;;19.22;76.40
63665;BME280;49820;33.966;73.390;2022-08-03T14:18:43;78476.91;;;19.02;73.83
63665;BME280;49820;33.966;73.390;2022-08-03T14:21:13;78513.16;;;19.20;76.24
63665;BME280;49820;33.966;73.390;2022-08-03T14:23:43;78431.59;;;18.40;76.52
63665;BME280;49820;33.966;73.390;2022-08-03T14:26:12;78506.25;;;18.98;76.41
63665;BME280;49820;33.966;73.390;2022-08-03T14:28:43;78502.81;;;18.87;78.62
63665;BME280;49820;33.966;73.390;2022-08-03T14:31:13;78523.13;;;18.98;78.52
63665;BME280;49820;33.966;73.390;2022-08-03T14:34:03;78475.88;;;18.72;78.92
63665;BME280;49820;33.966;73.390;2022-08-03T14:36:33;78510.59;;;18.93;79.80